Time;durP1;ratioP1;P1;durP2;ratioP2;P2;SDS_P1;SDS_P2;PMS_P1;PMS_P2;Temp;Humidity;BMP_temperature;BMP_pressure;BME280_temperature;BME280_humidity;BME280_pressure;Samples;Min_cycle;Max_cycle;Signal;HPM_P1;HPM_P2
2023/06/27 00:00:48;;;;;;;0.80;0.80;;;;;;;15.65;100.00;99671.89;90923;1275;142881;-64
2023/06/27 00:02:53;;;;;;;1.70;1.40;;;;;;;15.63;100.00;99672.63;91079;1272;22323;-63
2023/06/27 00:04:56;;;;;;;0.80;0.70;;;;;;;15.63;100.00;99667.58;90979;1273;138297;-62
2023/06/27 00:06:57;;;;;;;0.70;0.70;;;;;;;15.69;100.00;99663.83;91081;1273;22240;-62
2023/06/27 00:08:59;;;;;;;1.10;1.10;;;;;;;15.67;100.00;99657.83;90972;1272;139449;-62
2023/06/27 00:11:01;;;;;;;0.60;0.60;;;;;;;15.71;100.00;99652.92;90932;1273;23109;-62
2023/06/27 00:13:03;;;;;;;4.10;0.80;;;;;;;15.77;100.00;99649.96;90987;1274;138018;-63
2023/06/27 00:15:05;;;;;;;0.80;0.60;;;;;;;15.84;100.00;99651.52;91073;1274;22225;-62
2023/06/27 00:17:07;;;;;;;1.70;0.90;;;;;;;15.85;100.00;99650.84;90925;1271;138798;-62
2023/06/27 00:19:09;;;;;;;0.50;0.50;;;;;;;15.90;100.00;99653.15;90976;1272;22167;-62
2023/06/27 00:21:10;;;;;;;0.60;0.60;;;;;;;16.13;100.00;99653.35;90927;1273;139978;-62
2023/06/27 00:23:17;;;;;;;1.20;1.10;;;;;;;16.32;100.00;99657.61;91095;1273;22971;-63
2023/06/27 00:25:19;;;;;;;2.30;0.60;;;;;;;16.30;100.00;99646.34;91029;1271;138087;-63
2023/06/27 00:27:21;;;;;;;0.80;0.50;;;;;;;16.49;100.00;99657.85;91040;1275;23084;-64
2023/06/27 00:29:23;;;;;;;1.10;1.00;;;;;;;16.72;100.00;99651.70;91051;1271;138077;-63
2023/06/27 00:31:25;;;;;;;1.30;1.00;;;;;;;16.86;100.00;99652.25;91161;1271;22223;-63
2023/06/27 00:33:27;;;;;;;2.40;2.00;;;;;;;16.79;100.00;99651.05;90993;1271;139331;-62
2023/06/27 00:35:32;;;;;;;3.20;1.50;;;;;;;16.60;100.00;99650.77;90970;1273;23413;-62
2023/06/27 00:37:34;;;;;;;17.40;1.20;;;;;;;16.42;100.00;99648.22;90992;1271;139352;-62
2023/06/27 00:39:37;;;;;;;1.50;0.90;;;;;;;16.33;100.00;99651.48;91091;1272;22211;-62
2023/06/27 00:41:38;;;;;;;1.60;1.00;;;;;;;16.37;100.00;99649.36;90941;1272;138042;-62
2023/06/27 00:43:41;;;;;;;0.90;0.90;;;;;;;16.39;100.00;99646.75;91137;1277;22370;-63
2023/06/27 00:45:43;;;;;;;2.00;1.30;;;;;;;16.34;100.00;99646.56;91036;1271;138083;-63
2023/06/27 00:47:45;;;;;;;0.70;0.60;;;;;;;16.42;100.00;99646.27;91132;1271;22261;-62
2023/06/27 00:49:48;;;;;;;1.00;1.00;;;;;;;16.51;100.00;99650.19;90926;1258;139336;-62
2023/06/27 00:51:53;;;;;;;1.20;0.90;;;;;;;16.62;100.00;99654.45;91159;1271;23095;-62
2023/06/27 00:53:55;;;;;;;;;;;;;;;16.58;100.00;99643.73;91072;1271;137725;-66
2023/06/27 00:55:57;;;;;;;1.70;1.10;;;;;;;16.63;100.00;99653.05;90997;1274;22338;-62
2023/06/27 00:58:00;;;;;;;1.70;1.60;;;;;;;16.63;100.00;99654.09;91026;1265;138909;-62
2023/06/27 01:00:02;;;;;;;1.30;1.20;;;;;;;16.52;100.00;99643.10;91160;1271;22295;-65
2023/06/27 01:02:05;;;;;;;2.70;1.70;;;;;;;16.50;100.00;99652.20;91150;1273;23083;-61
2023/06/27 01:04:06;;;;;;;1.80;1.70;;;;;;;16.43;100.00;99649.30;91035;1271;138279;-63
2023/06/27 01:06:17;;;;;;;2.70;1.20;;;;;;;16.43;100.00;99648.44;91137;1271;22363;-62
2023/06/27 01:08:27;;;;;;;1.80;1.10;;;;;;;16.39;100.00;99651.27;91082;1271;139732;-62
2023/06/27 01:10:38;;;;;;;1.90;1.70;;;;;;;16.23;100.00;99652.39;91146;1271;22418;-64
2023/06/27 01:13:08;;;;;;;1.50;1.40;;;;;;;16.07;100.00;99653.67;90966;1272;138108;-64
2023/06/27 01:15:10;;;;;;;1.60;1.00;;;;;;;15.98;100.00;99649.42;91160;1271;22161;-63
2023/06/27 01:17:15;;;;;;;2.00;1.30;;;;;;;15.94;100.00;99649.56;91022;1271;139319;-63
2023/06/27 01:19:25;;;;;;;1.50;1.40;;;;;;;16.00;100.00;99648.60;91130;1271;22276;-64
2023/06/27 01:21:28;;;;;;;1.20;1.20;;;;;;;16.10;100.00;99650.55;91046;1271;138141;-64
2023/06/27 01:23:39;;;;;;;1.00;1.00;;;;;;;16.12;100.00;99652.34;91163;1271;22225;-63
2023/06/27 01:25:40;;;;;;;1.30;1.00;;;;;;;16.10;100.00;99655.23;91015;1271;138290;-63
2023/06/27 01:27:43;;;;;;;1.20;1.20;;;;;;;16.10;100.00;99658.09;91148;1271;22196;-62
2023/06/27 01:29:45;;;;;;;1.70;1.60;;;;;;;16.29;100.00;99657.66;90907;1274;139094;-61
2023/06/27 01:31:56;;;;;;;1.30;1.30;;;;;;;16.38;100.00;99659.91;91107;1273;23164;-62
2023/06/27 01:34:13;;;;;;;0.90;0.90;;;;;;;16.29;100.00;99659.61;90980;1275;139416;-62
2023/06/27 01:36:50;;;;;;;1.30;1.30;;;;;;;16.16;100.00;99661.85;91013;1272;139682;-62
2023/06/27 01:38:58;;;;;;;1.30;1.00;;;;;;;16.11;100.00;99662.29;91015;1272;22513;-62
2023/06/27 01:41:02;;;;;;;1.20;1.10;;;;;;;16.03;100.00;99660.90;90971;1273;138249;-63
2023/06/27 01:43:09;;;;;;;1.30;1.30;;;;;;;15.99;100.00;99662.06;91065;1273;22355;-62
2023/06/27 01:45:12;;;;;;;1.70;1.70;;;;;;;15.90;100.00;99660.68;90913;1272;139647;-62
2023/06/27 01:47:17;;;;;;;1.50;1.40;;;;;;;15.82;100.00;99659.48;91009;1274;22200;-62
2023/06/27 01:49:20;;;;;;;2.10;2.00;;;;;;;15.79;100.00;99660.30;90973;1261;138141;-62
2023/06/27 01:51:22;;;;;;;2.50;2.20;;;;;;;15.71;100.00;99660.77;91108;1273;22215;-62
2023/06/27 01:53:24;;;;;;;1.20;1.20;;;;;;;15.62;100.00;99659.50;90925;1271;138436;-64
2023/06/27 01:55:26;;;;;;;1.60;1.50;;;;;;;15.53;100.00;99665.02;91166;1271;22347;-62
2023/06/27 01:57:28;;;;;;;1.20;1.20;;;;;;;15.50;100.00;99667.77;90963;1271;139406;-62
2023/06/27 01:59:30;;;;;;;1.20;1.10;;;;;;;15.45;100.00;99669.21;91126;1272;22460;-61
2023/06/27 02:01:32;;;;;;;3.00;2.20;;;;;;;15.39;100.00;99671.61;90911;1272;141362;-62
2023/06/27 02:03:34;;;;;;;1.50;1.30;;;;;;;15.34;100.00;99675.09;91228;1276;22282;-65
2023/06/27 02:05:37;;;;;;;1.20;1.00;;;;;;;15.26;100.00;99665.65;91029;1271;138549;-62
2023/06/27 02:07:39;;;;;;;1.90;1.80;;;;;;;15.36;100.00;99674.73;91070;1268;22856;-66
2023/06/27 02:09:43;;;;;;;1.50;1.40;;;;;;;15.42;100.00;99666.93;90882;1274;139458;-66
2023/06/27 02:11:46;;;;;;;1.20;1.20;;;;;;;15.51;100.00;99661.70;91113;1274;22318;-63
2023/06/27 02:13:47;;;;;;;4.60;1.60;;;;;;;15.58;100.00;99663.89;91028;1271;140162;-63
2023/06/27 02:15:49;;;;;;;1.30;1.20;;;;;;;15.65;100.00;99665.10;91024;1273;22341;-62
2023/06/27 02:17:51;;;;;;;5.50;1.40;;;;;;;15.70;100.00;99665.63;90937;1273;138404;-66
2023/06/27 02:19:55;;;;;;;1.70;1.60;;;;;;;15.66;100.00;99669.64;91030;1272;22296;-63
2023/06/27 02:21:57;;;;;;;1.70;1.50;;;;;;;15.65;100.00;99668.39;90982;1271;138914;-63
2023/06/27 02:23:59;;;;;;;1.60;1.50;;;;;;;15.54;100.00;99665.89;91115;1271;22967;-62
2023/06/27 02:26:02;;;;;;;5.60;1.30;;;;;;;15.43;100.00;99662.83;91059;1271;138951;-65
2023/06/27 02:28:05;;;;;;;2.10;2.00;;;;;;;15.44;100.00;99661.45;91077;1271;140831;-63
2023/06/27 02:30:07;;;;;;;4.20;1.10;;;;;;;15.49;100.00;99660.15;91114;1271;22328;-62
2023/06/27 02:32:10;;;;;;;3.20;1.70;;;;;;;15.57;100.00;99660.85;91028;1271;138612;-61
2023/06/27 02:34:12;;;;;;;1.50;1.40;;;;;;;15.70;100.00;99658.94;91134;1271;23245;-63
2023/06/27 02:36:14;;;;;;;2.30;1.50;;;;;;;15.74;100.00;99656.34;91059;1271;139330;-64
2023/06/27 02:38:15;;;;;;;1.50;1.50;;;;;;;15.69;100.00;99653.75;91144;1271;22378;-64
2023/06/27 02:40:17;;;;;;;1.80;1.70;;;;;;;15.63;100.00;99651.73;91006;1272;139369;-62
2023/06/27 02:42:19;;;;;;;2.90;1.60;;;;;;;15.61;100.00;99652.08;91142;1271;22226;-63
2023/06/27 02:44:22;;;;;;;1.60;1.50;;;;;;;15.62;100.00;99647.20;91019;1271;139750;-65
2023/06/27 02:46:26;;;;;;;1.30;1.30;;;;;;;15.69;100.00;99647.13;91136;1271;22117;-63
2023/06/27 02:48:27;;;;;;;1.00;1.00;;;;;;;15.89;100.00;99645.45;90999;1273;139227;-64
2023/06/27 02:50:29;;;;;;;1.40;1.30;;;;;;;16.16;100.00;99647.58;91162;1271;22212;-63
2023/06/27 02:52:31;;;;;;;1.60;1.50;;;;;;;16.43;100.00;99643.05;90936;1274;139754;-63
2023/06/27 02:54:32;;;;;;;2.70;2.50;;;;;;;16.71;100.00;99643.06;91187;1278;22165;-63
2023/06/27 02:56:34;;;;;;;1.70;1.60;;;;;;;17.00;100.00;99642.40;91020;1260;138396;-65
2023/06/27 02:58:36;;;;;;;0.90;0.90;;;;;;;17.33;100.00;99643.00;91169;1264;22199;-63
2023/06/27 03:00:38;;;;;;;1.80;1.30;;;;;;;17.79;100.00;99639.45;90894;1273;139317;-64
2023/06/27 03:02:40;;;;;;;1.10;1.00;;;;;;;18.17;100.00;99635.59;91164;1271;22235;-63
2023/06/27 03:04:42;;;;;;;1.80;1.70;;;;;;;18.56;99.66;99635.66;90948;1273;138532;-64
2023/06/27 03:06:44;;;;;;;1.20;1.20;;;;;;;18.90;98.30;99633.17;91118;1271;22137;-63
2023/06/27 03:08:46;;;;;;;1.40;1.30;;;;;;;19.26;96.10;99632.29;90992;1260;137929;-63
2023/06/27 03:10:47;;;;;;;2.00;1.50;;;;;;;19.64;93.61;99632.45;91008;1270;22328;-62
2023/06/27 03:12:49;;;;;;;6.40;2.60;;;;;;;19.86;90.88;99632.91;90892;1273;137601;-62
2023/06/27 03:14:51;;;;;;;1.30;1.10;;;;;;;19.80;90.26;99637.77;91089;1274;22368;-64
2023/06/27 03:16:54;;;;;;;1.20;1.10;;;;;;;19.75;91.17;99633.73;91032;1258;137671;-64
2023/06/27 03:18:56;;;;;;;0.90;0.90;;;;;;;19.89;90.70;99633.02;91071;1271;23092;-64
2023/06/27 03:20:58;;;;;;;2.70;2.00;;;;;;;20.02;90.11;99635.16;90914;1272;138046;-63
2023/06/27 03:23:00;;;;;;;1.20;1.10;;;;;;;20.01;89.24;99632.23;91186;1271;22967;-63
2023/06/27 03:25:01;;;;;;;1.50;1.40;;;;;;;19.86;88.86;99630.80;91064;1271;137091;-64
2023/06/27 03:27:03;;;;;;;1.50;1.40;;;;;;;19.56;90.19;99630.27;91141;1261;22448;-64
2023/06/27 03:29:06;;;;;;;1.70;1.70;;;;;;;19.20;91.86;99618.70;90837;1274;137657;-63
2023/06/27 03:31:08;;;;;;;2.10;2.00;;;;;;;19.10;93.05;99619.59;91115;1261;22318;-64
2023/06/27 03:33:10;;;;;;;3.40;1.60;;;;;;;19.11;93.45;99632.05;91009;1271;137251;-63
2023/06/27 03:35:12;;;;;;;1.80;1.70;;;;;;;18.88;93.51;99624.83;91072;1272;22224;-63
2023/06/27 03:37:14;;;;;;;1.50;1.40;;;;;;;18.78;95.09;99631.35;90971;1265;139370;-63
2023/06/27 03:39:16;;;;;;;1.40;1.40;;;;;;;18.62;96.04;99633.66;91146;1271;22946;-63
2023/06/27 03:41:17;;;;;;;1.40;1.30;;;;;;;18.50;96.37;99637.14;91014;1272;138132;-64
2023/06/27 03:43:21;;;;;;;2.80;2.30;;;;;;;18.26;97.86;99644.04;91068;1273;22406;-63
2023/06/27 03:45:23;;;;;;;2.50;2.40;;;;;;;18.00;99.38;99646.70;91031;1271;139084;-62
2023/06/27 03:47:24;;;;;;;2.30;2.20;;;;;;;17.71;99.97;99646.20;91190;1259;22387;-63
2023/06/27 03:49:26;;;;;;;2.30;2.10;;;;;;;17.45;100.00;99646.16;90988;1273;138243;-63
2023/06/27 03:51:28;;;;;;;2.10;2.00;;;;;;;17.32;100.00;99643.36;91073;1272;22327;-66
2023/06/27 03:53:30;;;;;;;3.90;2.50;;;;;;;17.25;100.00;99640.63;91052;1271;137964;-62
2023/06/27 03:55:33;;;;;;;2.60;2.30;;;;;;;17.17;100.00;99635.20;91144;1271;22948;-65
2023/06/27 03:57:35;;;;;;;2.60;2.20;;;;;;;17.03;100.00;99627.38;90890;1268;139345;-63
2023/06/27 03:59:36;;;;;;;3.00;2.80;;;;;;;17.09;100.00;99626.15;91145;1271;23243;-64
2023/06/27 04:01:41;;;;;;;2.40;2.10;;;;;;;17.29;100.00;99628.08;90878;1271;139590;-64
2023/06/27 04:03:43;;;;;;;2.70;2.60;;;;;;;17.70;100.00;99626.74;91095;1261;22354;-64
2023/06/27 04:05:45;;;;;;;2.70;2.50;;;;;;;18.11;100.00;99625.57;90953;1272;140784;-63
2023/06/27 04:07:47;;;;;;;2.00;1.90;;;;;;;18.27;100.00;99618.44;91005;1264;22992;-63
2023/06/27 04:09:48;;;;;;;2.30;2.00;;;;;;;18.44;99.75;99615.18;90954;1271;138651;-64
2023/06/27 04:11:50;;;;;;;3.10;2.30;;;;;;;18.59;99.29;99616.41;91098;1271;22337;-64
2023/06/27 04:13:53;;;;;;;1.80;1.70;;;;;;;18.63;98.71;99609.22;91000;1261;137606;-64
2023/06/27 04:15:55;;;;;;;3.10;2.30;;;;;;;18.57;98.26;99605.33;90976;1271;22356;-66
2023/06/27 04:17:57;;;;;;;3.10;2.90;;;;;;;18.64;98.35;99604.84;90984;1271;137849;-66
2023/06/27 04:19:59;;;;;;;2.20;2.10;;;;;;;18.81;98.01;99598.08;91082;1269;22312;-64
2023/06/27 04:22:00;;;;;;;2.90;2.10;;;;;;;18.98;96.77;99595.70;90916;1272;136961;-67
2023/06/27 04:24:03;;;;;;;2.70;2.50;;;;;;;19.04;95.79;99589.99;90847;1260;138805;-63
2023/06/27 04:26:07;;;;;;;1.90;1.80;;;;;;;19.04;95.59;99590.00;91030;1272;22232;-64
2023/06/27 04:28:11;;;;;;;3.10;1.80;;;;;;;19.06;96.24;99590.05;90945;1271;138480;-64
2023/06/27 04:30:13;;;;;;;2.00;1.90;;;;;;;19.20;95.94;99590.60;91075;1271;22346;-64
2023/06/27 04:32:14;;;;;;;3.10;2.90;;;;;;;19.42;94.69;99595.71;90884;1271;138182;-65
2023/06/27 04:34:16;;;;;;;2.30;2.10;;;;;;;19.56;94.93;99591.80;91099;1271;22326;-63
2023/06/27 04:36:20;;;;;;;5.60;5.20;;;;;;;19.73;94.61;99590.25;91019;1270;138851;-64
2023/06/27 04:38:21;;;;;;;2.70;2.30;;;;;;;20.06;92.59;99592.65;91072;1270;22332;-63
2023/06/27 04:40:23;;;;;;;1.80;1.70;;;;;;;20.17;89.92;99590.05;90961;1273;141538;-66
2023/06/27 04:42:24;;;;;;;4.10;1.80;;;;;;;19.97;89.93;99591.13;91073;1264;23148;-63
2023/06/27 04:44:26;;;;;;;2.60;2.20;;;;;;;19.73;91.04;99593.45;90915;1271;140366;-64
2023/06/27 04:46:28;;;;;;;2.00;1.90;;;;;;;19.48;92.09;99592.71;91050;1271;23182;-65
2023/06/27 04:48:30;;;;;;;2.00;1.80;;;;;;;19.26;93.42;99586.10;90934;1271;138997;-64
2023/06/27 04:50:32;;;;;;;1.80;1.70;;;;;;;19.31;95.30;99588.27;91074;1271;22313;-64
2023/06/27 04:52:34;;;;;;;3.00;1.80;;;;;;;19.48;94.34;99581.41;90978;1271;138587;-64
2023/06/27 04:54:36;;;;;;;3.00;2.10;;;;;;;19.60;93.40;99578.38;91130;1272;22158;-65
2023/06/27 04:56:37;;;;;;;1.50;1.40;;;;;;;19.83;91.88;99572.17;91009;1259;137222;-64
2023/06/27 04:58:39;;;;;;;2.20;2.10;;;;;;;20.16;90.29;99580.38;91086;1271;22326;-63
2023/06/27 05:00:41;;;;;;;2.20;1.80;;;;;;;20.35;89.65;99575.50;90904;1269;137285;-63
2023/06/27 05:02:43;;;;;;;1.80;1.70;;;;;;;20.54;89.27;99577.27;91116;1259;22205;-64
2023/06/27 05:04:50;;;;;;;3.50;1.40;;;;;;;20.67;88.69;99577.55;90981;1271;137250;-66
2023/06/27 05:06:53;;;;;;;1.40;1.20;;;;;;;20.91;87.57;99580.20;91153;1271;22325;-65
2023/06/27 05:08:55;;;;;;;1.70;1.60;;;;;;;21.18;85.73;99582.12;90985;1271;137162;-64
2023/06/27 05:10:58;;;;;;;2.40;1.40;;;;;;;21.34;85.17;99578.41;91022;1270;22335;-66
2023/06/27 05:13:00;;;;;;;1.20;1.00;;;;;;;21.58;82.58;99579.73;90891;1273;141313;-66
2023/06/27 05:15:04;;;;;;;4.60;1.30;;;;;;;21.77;81.98;99574.03;91094;1271;22154;-66
2023/06/27 05:17:06;;;;;;;2.20;1.00;;;;;;;21.99;80.35;99583.54;90926;1271;137399;-67
2023/06/27 05:19:07;;;;;;;1.40;1.30;;;;;;;22.09;78.37;99583.35;91007;1273;23164;-64
2023/06/27 05:21:09;;;;;;;1.30;1.10;;;;;;;22.03;78.62;99582.31;90971;1260;138478;-64
2023/06/27 05:23:11;;;;;;;1.10;0.60;;;;;;;22.06;78.08;99585.73;91097;1271;22333;-66
2023/06/27 05:25:13;;;;;;;0.90;0.90;;;;;;;22.02;77.85;99583.90;90939;1271;137632;-66
2023/06/27 05:27:15;;;;;;;0.80;0.80;;;;;;;21.92;78.94;99585.82;91099;1273;22122;-65
2023/06/27 05:29:16;;;;;;;1.50;1.10;;;;;;;21.91;79.05;99578.55;90917;1271;138884;-66
2023/06/27 05:31:18;;;;;;;2.00;1.00;;;;;;;21.92;78.74;99575.83;91052;1271;22217;-66
2023/06/27 05:33:20;;;;;;;1.40;1.30;;;;;;;21.99;79.78;99579.10;90962;1271;138937;-65
2023/06/27 05:35:22;;;;;;;0.70;0.70;;;;;;;22.22;76.92;99585.33;91079;1261;23087;-65
2023/06/27 05:37:24;;;;;;;1.10;1.10;;;;;;;22.37;76.24;99585.34;90924;1271;137013;-67
2023/06/27 05:39:25;;;;;;;0.90;0.90;;;;;;;22.35;75.63;99579.10;91069;1260;24258;-66
2023/06/27 05:41:30;;;;;;;1.10;0.90;;;;;;;22.19;75.77;99574.98;90894;1271;138007;-66
2023/06/27 05:43:31;;;;;;;0.90;0.70;;;;;;;21.82;77.25;99574.75;91022;1272;22410;-64
2023/06/27 05:45:33;;;;;;;1.50;0.80;;;;;;;21.52;78.88;99575.41;90903;1271;138310;-65
2023/06/27 05:47:35;;;;;;;0.80;0.80;;;;;;;21.39;79.99;99574.70;91012;1273;22296;-65
2023/06/27 05:49:36;;;;;;;1.00;1.00;;;;;;;21.31;80.25;99575.40;90969;1273;137641;-64
2023/06/27 05:51:38;;;;;;;1.00;0.70;;;;;;;21.22;81.46;99577.39;91095;1271;22369;-66
2023/06/27 05:53:40;;;;;;;0.60;0.60;;;;;;;21.26;81.92;99579.59;90999;1271;137264;-65
2023/06/27 05:55:41;;;;;;;0.80;0.80;;;;;;;21.25;81.76;99572.70;91083;1271;22331;-66
2023/06/27 05:57:43;;;;;;;0.90;0.80;;;;;;;21.17;83.09;99577.08;91023;1271;137991;-66
2023/06/27 05:59:45;;;;;;;0.50;0.50;;;;;;;21.27;82.10;99577.30;91030;1271;22312;-63
2023/06/27 06:01:46;;;;;;;3.30;1.20;;;;;;;21.35;81.96;99576.20;90984;1271;137052;-65
2023/06/27 06:03:48;;;;;;;1.10;0.60;;;;;;;21.47;79.91;99577.56;91104;1273;23248;-63
2023/06/27 06:05:50;;;;;;;0.70;0.70;;;;;;;21.50;79.33;99579.34;90993;1271;137184;-65
2023/06/27 06:07:52;;;;;;;0.90;0.90;;;;;;;21.57;79.22;99576.48;91055;1271;22368;-66
2023/06/27 06:09:54;;;;;;;0.80;0.80;;;;;;;21.67;78.78;99571.29;91002;1261;137144;-66
2023/06/27 06:11:56;;;;;;;0.80;0.80;;;;;;;21.80;77.93;99578.67;91067;1271;22490;-65
2023/06/27 06:13:58;;;;;;;0.50;0.40;;;;;;;21.78;77.93;99577.39;90946;1258;137186;-66
2023/06/27 06:15:59;;;;;;;0.40;0.40;;;;;;;21.69;77.69;99578.48;91087;1272;22310;-66
2023/06/27 06:18:01;;;;;;;0.50;0.50;;;;;;;21.63;77.95;99577.60;90979;1262;137164;-65
2023/06/27 06:20:10;;;;;;;0.60;0.50;;;;;;;21.49;77.48;99560.59;90957;1273;138971;-63
2023/06/27 06:22:12;;;;;;;1.30;0.40;;;;;;;21.54;77.92;99571.29;91103;1265;22341;-66
2023/06/27 06:24:16;;;;;;;0.50;0.40;;;;;;;21.69;78.21;99577.39;90930;1271;137392;-64
2023/06/27 06:26:18;;;;;;;0.60;0.60;;;;;;;21.78;75.00;99583.79;91086;1273;23273;-65
2023/06/27 06:28:20;;;;;;;0.30;0.30;;;;;;;21.66;74.67;99583.27;90984;1274;138428;-66
2023/06/27 06:30:21;;;;;;;0.70;0.50;;;;;;;21.44;75.69;99580.88;90957;1260;22302;-64
2023/06/27 06:32:23;;;;;;;1.50;0.50;;;;;;;21.25;76.23;99586.42;90947;1271;137057;-64
2023/06/27 06:34:25;;;;;;;0.60;0.60;;;;;;;21.00;77.05;99585.21;91110;1271;22306;-66
2023/06/27 06:36:27;;;;;;;1.50;0.40;;;;;;;20.67;77.40;99575.86;90977;1271;137869;-66
2023/06/27 06:38:29;;;;;;;0.30;0.30;;;;;;;20.45;77.42;99578.46;91090;1261;22567;-64
2023/06/27 06:40:30;;;;;;;1.50;0.60;;;;;;;20.11;77.93;99572.58;90950;1260;137954;-66
2023/06/27 06:42:32;;;;;;;0.50;0.50;;;;;;;19.93;79.04;99585.65;91098;1272;23157;-64
2023/06/27 06:44:34;;;;;;;0.70;0.70;;;;;;;19.69;79.97;99588.44;90963;1267;137105;-65
2023/06/27 06:46:37;;;;;;;0.60;0.30;;;;;;;19.48;81.35;99585.67;91062;1271;23069;-64
2023/06/27 06:48:39;;;;;;;0.90;0.80;;;;;;;19.29;83.46;99584.27;90966;1272;137970;-68
2023/06/27 06:50:41;;;;;;;1.90;0.80;;;;;;;19.14;84.66;99580.15;91105;1272;22350;-64
2023/06/27 06:52:43;;;;;;;1.20;0.70;;;;;;;19.04;85.13;99577.20;90991;1271;138379;-65
2023/06/27 06:54:46;;;;;;;1.60;0.50;;;;;;;19.01;82.92;99576.27;91065;1273;22312;-64
2023/06/27 06:56:49;;;;;;;0.30;0.30;;;;;;;19.00;82.30;99575.17;90989;1272;137382;-67
2023/06/27 06:58:51;;;;;;;0.40;0.30;;;;;;;19.00;81.55;99576.63;91021;1271;23776;-65
2023/06/27 07:00:53;;;;;;;0.30;0.30;;;;;;;18.99;82.36;99576.56;90986;1275;137873;-67
2023/06/27 07:02:55;;;;;;;0.30;0.30;;;;;;;18.99;82.81;99576.46;90954;1261;22310;-68
2023/06/27 07:04:57;;;;;;;0.40;0.30;;;;;;;18.97;83.47;99564.02;90989;1271;138610;-66
2023/06/27 07:06:59;;;;;;;1.20;0.30;;;;;;;19.13;83.22;99564.38;91068;1271;22244;-67
2023/06/27 07:09:01;;;;;;;1.30;0.40;;;;;;;19.40;84.12;99579.39;90990;1271;137028;-69
2023/06/27 07:11:02;;;;;;;1.50;0.40;;;;;;;19.72;83.82;99579.65;91104;1271;22357;-65
2023/06/27 07:13:05;;;;;;;0.20;0.20;;;;;;;20.11;82.88;99579.83;90989;1271;137253;-67
2023/06/27 07:15:08;;;;;;;0.20;0.20;;;;;;;20.47;79.45;99573.64;91141;1271;22323;-66
2023/06/27 07:17:09;;;;;;;0.40;0.40;;;;;;;20.75;78.51;99571.14;90670;1271;531515;-65
2023/06/27 07:19:55;;;;;;;1.20;0.20;;;;;;;20.92;76.82;99567.58;85492;1306;544928;-68
2023/06/27 07:21:57;;;;;;;0.30;0.20;;;;;;;21.13;77.05;99566.04;87208;1283;136559;-67
2023/06/27 07:23:59;;;;;;;0.10;0.10;;;;;;;21.48;74.96;99578.42;87396;1270;22545;-64
2023/06/27 07:26:01;;;;;;;0.20;0.20;;;;;;;21.59;72.94;99583.13;87173;1284;136792;-66
2023/06/27 07:28:02;;;;;;;0.50;0.20;;;;;;;21.49;72.28;99582.69;87613;1276;138827;-63
2023/06/27 07:30:05;;;;;;;0.50;0.30;;;;;;;21.24;72.64;99573.84;90897;1272;23063;-65
2023/06/27 07:32:09;;;;;;;0.60;0.20;;;;;;;20.95;73.23;99569.14;90800;1271;137861;-67
2023/06/27 07:34:11;;;;;;;0.20;0.10;;;;;;;20.72;75.74;99558.67;90860;1272;248850;-66
2023/06/27 07:36:13;;;;;;;1.70;0.20;;;;;;;20.68;77.02;99554.63;90974;1272;137098;-65
2023/06/27 07:38:16;;;;;;;0.20;0.10;;;;;;;20.81;76.36;99558.45;91091;1269;22311;-65
2023/06/27 07:40:18;;;;;;;1.60;0.20;;;;;;;20.90;75.65;99554.09;90929;1272;138375;-66
2023/06/27 07:42:19;;;;;;;0.40;0.20;;;;;;;21.04;74.33;99555.02;91200;1271;22395;-67
2023/06/27 07:44:21;;;;;;;0.10;0.10;;;;;;;21.12;73.43;99560.67;91043;1271;136952;-67
2023/06/27 07:46:22;;;;;;;0.10;0.10;;;;;;;21.12;73.09;99565.83;91222;1269;22366;-66
2023/06/27 07:48:24;;;;;;;0.80;0.20;;;;;;;21.02;72.85;99564.73;91103;1258;139936;-67
2023/06/27 07:50:26;;;;;;;0.10;0.10;;;;;;;20.91;73.69;99572.78;91191;1270;23320;-65
2023/06/27 07:52:28;;;;;;;2.50;0.30;;;;;;;20.78;73.86;99558.95;91145;1270;137331;-65
2023/06/27 07:54:29;;;;;;;0.70;0.20;;;;;;;20.78;74.36;99566.97;91166;1270;22323;-65
2023/06/27 07:56:31;;;;;;;0.40;0.30;;;;;;;20.73;74.23;99568.65;91020;1272;137103;-65
2023/06/27 07:58:33;;;;;;;0.30;0.30;;;;;;;20.72;74.99;99570.28;91143;1271;23403;-64
2023/06/27 08:00:35;;;;;;;0.70;0.30;;;;;;;20.72;75.61;99566.17;91003;1271;136848;-65
2023/06/27 08:02:36;;;;;;;1.90;0.40;;;;;;;20.74;76.23;99566.75;91207;1270;23883;-64
2023/06/27 08:04:38;;;;;;;0.40;0.30;;;;;;;20.80;76.17;99561.53;91044;1271;137349;-65
2023/06/27 08:06:40;;;;;;;0.50;0.50;;;;;;;20.85;76.29;99560.44;91159;1272;22339;-64
2023/06/27 08:08:42;;;;;;;1.70;0.40;;;;;;;20.96;76.45;99555.64;91080;1270;136777;-65
2023/06/27 08:10:44;;;;;;;0.60;0.60;;;;;;;21.11;76.38;99558.41;91189;1270;22361;-64
2023/06/27 08:12:45;;;;;;;0.60;0.60;;;;;;;21.25;76.08;99557.20;91016;1270;138133;-65
2023/06/27 08:14:49;;;;;;;0.70;0.70;;;;;;;21.30;76.12;99557.24;91191;1270;22445;-64
2023/06/27 08:16:51;;;;;;;1.00;0.70;;;;;;;21.28;77.37;99552.58;91089;1270;138083;-68
2023/06/27 08:18:53;;;;;;;0.60;0.50;;;;;;;21.30;77.56;99555.56;91110;1271;22370;-65
2023/06/27 08:20:54;;;;;;;0.60;0.60;;;;;;;21.30;76.89;99554.52;91095;1261;136682;-65
2023/06/27 08:22:56;;;;;;;0.80;0.70;;;;;;;21.28;76.63;99555.46;91213;1270;22350;-64
2023/06/27 08:24:57;;;;;;;1.10;1.00;;;;;;;21.23;76.83;99556.35;91119;1269;137974;-65
2023/06/27 08:26:59;;;;;;;0.70;0.70;;;;;;;21.15;76.45;99554.75;91207;1270;23022;-65
2023/06/27 08:29:00;;;;;;;0.70;0.70;;;;;;;21.11;77.51;99554.71;91093;1270;137015;-65
2023/06/27 08:31:03;;;;;;;0.70;0.60;;;;;;;21.12;77.46;99556.27;91209;1273;22348;-65
2023/06/27 08:33:06;;;;;;;0.50;0.50;;;;;;;21.16;77.64;99554.85;91055;1270;137763;-65
2023/06/27 08:35:08;;;;;;;0.50;0.50;;;;;;;21.22;76.82;99553.20;91124;1260;22398;-66
2023/06/27 08:37:10;;;;;;;0.60;0.40;;;;;;;21.27;76.47;99555.63;91075;1270;138226;-66
2023/06/27 08:39:15;;;;;;;0.70;0.50;;;;;;;21.29;76.10;99555.77;91092;1268;22371;-65
2023/06/27 08:41:17;;;;;;;0.60;0.60;;;;;;;21.30;76.22;99554.03;91069;1270;137182;-65
2023/06/27 08:43:18;;;;;;;0.40;0.40;;;;;;;21.31;75.09;99554.25;91172;1260;22748;-66
2023/06/27 08:45:20;;;;;;;1.30;0.60;;;;;;;21.26;75.52;99552.38;91127;1270;136929;-65
2023/06/27 08:47:25;;;;;;;0.80;0.60;;;;;;;21.25;76.27;99551.25;91203;1271;22339;-64
2023/06/27 08:49:32;;;;;;;1.00;0.80;;;;;;;21.25;76.72;99547.63;91079;1270;138159;-65
2023/06/27 08:51:38;;;;;;;0.90;0.40;;;;;;;21.29;75.74;99546.19;91022;1272;22352;-63
2023/06/27 08:53:42;;;;;;;0.70;0.70;;;;;;;21.35;74.93;99543.98;91014;1272;137916;-66
2023/06/27 08:55:52;;;;;;;1.50;0.90;;;;;;;21.32;74.69;99531.16;91119;1259;23500;-66
2023/06/27 08:57:57;;;;;;;1.20;0.80;;;;;;;21.34;73.72;99538.52;91107;1269;137049;-65
2023/06/27 09:00:10;;;;;;;2.20;1.30;;;;;;;21.29;74.62;99532.80;91142;1270;22289;-64
2023/06/27 09:02:13;;;;;;;1.20;0.60;;;;;;;21.26;75.53;99529.35;91136;1273;22482;-65
2023/06/27 09:04:15;;;;;;;1.30;0.90;;;;;;;21.28;76.54;99531.29;90995;1271;137056;-64
2023/06/27 09:06:17;;;;;;;1.60;0.70;;;;;;;21.37;76.08;99528.69;91087;1271;22382;-65
2023/06/27 09:08:19;;;;;;;3.50;0.70;;;;;;;21.43;75.50;99529.30;91026;1271;138064;-64
2023/06/27 09:10:21;;;;;;;1.00;0.90;;;;;;;21.41;75.27;99531.38;91107;1271;22339;-65
2023/06/27 09:12:26;;;;;;;2.40;0.60;;;;;;;21.38;76.01;99529.33;90981;1272;138863;-68
2023/06/27 09:14:27;;;;;;;0.60;0.60;;;;;;;21.39;76.77;99524.40;91061;1271;22143;-65
2023/06/27 09:16:29;;;;;;;0.60;0.50;;;;;;;21.45;76.85;99526.33;90993;1271;138170;-67
2023/06/27 09:18:31;;;;;;;1.10;1.00;;;;;;;21.45;77.09;99526.61;91104;1272;22321;-64
2023/06/27 09:20:33;;;;;;;0.90;0.70;;;;;;;21.44;76.60;99525.63;91022;1271;137277;-65
2023/06/27 09:22:35;;;;;;;2.40;0.60;;;;;;;21.46;76.38;99522.59;91116;1273;22151;-66
2023/06/27 09:24:40;;;;;;;0.50;0.50;;;;;;;21.50;76.64;99522.51;91053;1271;136772;-65
2023/06/27 09:26:42;;;;;;;1.40;1.00;;;;;;;21.56;76.25;99523.45;91097;1272;23096;-65
2023/06/27 09:28:46;;;;;;;0.60;0.60;;;;;;;21.58;76.96;99521.59;91008;1272;136814;-67
2023/06/27 09:30:56;;;;;;;0.30;0.30;;;;;;;21.62;77.47;99526.34;91141;1271;23066;-65
2023/06/27 09:32:59;;;;;;;2.30;0.90;;;;;;;21.61;75.58;99529.27;90988;1271;138172;-65